sensor_id;sensor_type;location;lat;lon;timestamp;P1;durP1;ratioP1;P2;durP2;ratioP2
7989;SDS011;4040;42.848;23.034;2023-10-19T00:00:30;10.63;;;7.73;;
7989;SDS011;4040;42.848;23.034;2023-10-19T00:10:43;14.00;;;8.43;;
7989;SDS011;4040;42.848;23.034;2023-10-19T00:16:34;12.43;;;8.57;;
7989;SDS011;4040;42.848;23.034;2023-10-19T00:22:23;12.97;;;7.97;;
7989;SDS011;4040;42.848;23.034;2023-10-19T00:28:14;14.03;;;8.33;;
7989;SDS011;4040;42.848;23.034;2023-10-19T00:34:04;12.00;;;7.70;;
7989;SDS011;4040;42.848;23.034;2023-10-19T00:39:53;12.40;;;7.73;;
7989;SDS011;4040;42.848;23.034;2023-10-19T00:46:02;12.23;;;8.57;;
7989;SDS011;4040;42.848;23.034;2023-10-19T00:51:53;12.87;;;8.70;;
7989;SDS011;4040;42.848;23.034;2023-10-19T00:57:49;19.97;;;10.10;;
7989;SDS011;4040;42.848;23.034;2023-10-19T01:03:42;15.00;;;10.37;;
7989;SDS011;4040;42.848;23.034;2023-10-19T01:13:53;16.87;;;10.10;;
7989;SDS011;4040;42.848;23.034;2023-10-19T01:19:43;14.90;;;9.67;;
7989;SDS011;4040;42.848;23.034;2023-10-19T01:25:34;14.60;;;10.37;;
7989;SDS011;4040;42.848;23.034;2023-10-19T01:31:32;14.70;;;9.43;;
7989;SDS011;4040;42.848;23.034;2023-10-19T01:37:25;14.43;;;10.30;;
7989;SDS011;4040;42.848;23.034;2023-10-19T01:43:15;18.73;;;10.63;;
7989;SDS011;4040;42.848;23.034;2023-10-19T01:49:08;16.87;;;12.23;;
7989;SDS011;4040;42.848;23.034;2023-10-19T01:54:58;18.93;;;10.83;;
7989;SDS011;4040;42.848;23.034;2023-10-19T02:00:56;15.87;;;10.63;;
7989;SDS011;4040;42.848;23.034;2023-10-19T02:06:47;14.83;;;10.43;;
7989;SDS011;4040;42.848;23.034;2023-10-19T02:17:01;18.07;;;11.17;;
7989;SDS011;4040;42.848;23.034;2023-10-19T02:22:51;16.77;;;9.73;;
7989;SDS011;4040;42.848;23.034;2023-10-19T02:28:40;11.67;;;8.80;;
7989;SDS011;4040;42.848;23.034;2023-10-19T02:34:32;12.73;;;9.03;;
7989;SDS011;4040;42.848;23.034;2023-10-19T02:40:21;13.47;;;9.63;;
7989;SDS011;4040;42.848;23.034;2023-10-19T02:46:12;15.17;;;9.80;;
7989;SDS011;4040;42.848;23.034;2023-10-19T02:52:04;15.80;;;10.93;;
7989;SDS011;4040;42.848;23.034;2023-10-19T02:57:53;13.50;;;9.30;;
7989;SDS011;4040;42.848;23.034;2023-10-19T03:03:44;17.80;;;10.73;;
7989;SDS011;4040;42.848;23.034;2023-10-19T03:09:34;13.60;;;10.23;;
7989;SDS011;4040;42.848;23.034;2023-10-19T03:19:45;13.93;;;9.63;;
7989;SDS011;4040;42.848;23.034;2023-10-19T03:25:36;17.33;;;12.27;;
7989;SDS011;4040;42.848;23.034;2023-10-19T03:31:42;13.80;;;9.90;;
7989;SDS011;4040;42.848;23.034;2023-10-19T03:37:32;14.83;;;9.90;;
7989;SDS011;4040;42.848;23.034;2023-10-19T03:43:29;16.27;;;11.17;;
7989;SDS011;4040;42.848;23.034;2023-10-19T03:49:22;14.77;;;10.30;;
7989;SDS011;4040;42.848;23.034;2023-10-19T03:55:14;16.27;;;10.37;;
7989;SDS011;4040;42.848;23.034;2023-10-19T04:01:07;13.50;;;10.07;;
7989;SDS011;4040;42.848;23.034;2023-10-19T04:06:57;15.63;;;9.73;;
7989;SDS011;4040;42.848;23.034;2023-10-19T04:12:46;14.13;;;10.27;;
7989;SDS011;4040;42.848;23.034;2023-10-19T04:22:58;15.47;;;10.13;;
7989;SDS011;4040;42.848;23.034;2023-10-19T04:28:57;12.13;;;8.83;;
7989;SDS011;4040;42.848;23.034;2023-10-19T04:31:25;13.37;;;8.37;;
7989;SDS011;4040;42.848;23.034;2023-10-19T04:37:15;11.37;;;6.13;;
7989;SDS011;4040;42.848;23.034;2023-10-19T04:39:45;12.50;;;6.03;;
7989;SDS011;4040;42.848;23.034;2023-10-19T04:45:39;12.00;;;9.63;;
7989;SDS011;4040;42.848;23.034;2023-10-19T04:51:28;23.47;;;12.37;;
7989;SDS011;4040;42.848;23.034;2023-10-19T04:57:18;11.27;;;8.07;;
7989;SDS011;4040;42.848;23.034;2023-10-19T05:03:07;9.20;;;5.53;;
7989;SDS011;4040;42.848;23.034;2023-10-19T05:08:56;8.00;;;5.57;;
7989;SDS011;4040;42.848;23.034;2023-10-19T05:14:47;8.50;;;5.73;;
7989;SDS011;4040;42.848;23.034;2023-10-19T05:20:36;8.83;;;6.83;;
7989;SDS011;4040;42.848;23.034;2023-10-19T05:26:27;8.43;;;6.03;;
7989;SDS011;4040;42.848;23.034;2023-10-19T05:32:17;9.87;;;7.93;;
7989;SDS011;4040;42.848;23.034;2023-10-19T05:38:06;8.33;;;5.73;;
7989;SDS011;4040;42.848;23.034;2023-10-19T05:40:33;7.47;;;6.17;;
7989;SDS011;4040;42.848;23.034;2023-10-19T05:46:22;10.53;;;7.83;;
7989;SDS011;4040;42.848;23.034;2023-10-19T05:52:13;10.27;;;6.90;;
7989;SDS011;4040;42.848;23.034;2023-10-19T05:54:41;13.47;;;8.23;;
7989;SDS011;4040;42.848;23.034;2023-10-19T05:57:08;12.80;;;8.07;;
7989;SDS011;4040;42.848;23.034;2023-10-19T05:59:35;12.40;;;7.80;;
7989;SDS011;4040;42.848;23.034;2023-10-19T06:02:03;12.70;;;7.97;;
7989;SDS011;4040;42.848;23.034;2023-10-19T06:07:55;13.97;;;8.53;;
7989;SDS011;4040;42.848;23.034;2023-10-19T06:13:46;13.93;;;9.10;;
7989;SDS011;4040;42.848;23.034;2023-10-19T06:16:14;14.70;;;8.03;;
7989;SDS011;4040;42.848;23.034;2023-10-19T06:25:36;8.10;;;6.37;;
7989;SDS011;4040;42.848;23.034;2023-10-19T06:28:04;11.90;;;8.63;;
7989;SDS011;4040;42.848;23.034;2023-10-19T06:30:32;12.13;;;8.37;;
7989;SDS011;4040;42.848;23.034;2023-10-19T06:36:21;14.33;;;7.50;;
7989;SDS011;4040;42.848;23.034;2023-10-19T06:42:12;11.90;;;7.67;;
7989;SDS011;4040;42.848;23.034;2023-10-19T06:44:40;12.80;;;9.47;;
7989;SDS011;4040;42.848;23.034;2023-10-19T06:47:09;15.03;;;9.03;;
7989;SDS011;4040;42.848;23.034;2023-10-19T06:52:58;12.50;;;7.70;;
7989;SDS011;4040;42.848;23.034;2023-10-19T06:55:25;11.37;;;7.97;;
7989;SDS011;4040;42.848;23.034;2023-10-19T07:01:16;48.83;;;22.23;;
7989;SDS011;4040;42.848;23.034;2023-10-19T07:07:05;12.50;;;8.10;;
7989;SDS011;4040;42.848;23.034;2023-10-19T07:12:55;10.23;;;7.57;;
7989;SDS011;4040;42.848;23.034;2023-10-19T07:15:23;11.27;;;7.10;;
7989;SDS011;4040;42.848;23.034;2023-10-19T07:17:53;8.47;;;6.60;;
7989;SDS011;4040;42.848;23.034;2023-10-19T07:20:21;8.07;;;6.20;;
7989;SDS011;4040;42.848;23.034;2023-10-19T07:26:23;10.05;;;6.80;;
7989;SDS011;4040;42.848;23.034;2023-10-19T07:32:18;11.52;;;6.82;;
7989;SDS011;4040;42.848;23.034;2023-10-19T07:38:09;13.00;;;7.85;;
7989;SDS011;4040;42.848;23.034;2023-10-19T07:40:36;10.68;;;6.40;;
7989;SDS011;4040;42.848;23.034;2023-10-19T07:46:25;8.38;;;5.95;;
7989;SDS011;4040;42.848;23.034;2023-10-19T07:52:15;8.90;;;5.70;;
7989;SDS011;4040;42.848;23.034;2023-10-19T07:58:06;7.95;;;5.78;;
7989;SDS011;4040;42.848;23.034;2023-10-19T08:00:33;7.28;;;5.35;;
7989;SDS011;4040;42.848;23.034;2023-10-19T08:03:01;7.00;;;5.50;;
7989;SDS011;4040;42.848;23.034;2023-10-19T08:05:29;7.63;;;5.63;;
7989;SDS011;4040;42.848;23.034;2023-10-19T08:11:18;9.13;;;5.97;;
7989;SDS011;4040;42.848;23.034;2023-10-19T08:17:09;7.30;;;5.28;;
7989;SDS011;4040;42.848;23.034;2023-10-19T08:19:38;7.65;;;5.82;;
7989;SDS011;4040;42.848;23.034;2023-10-19T08:22:05;8.00;;;5.97;;
7989;SDS011;4040;42.848;23.034;2023-10-19T08:27:54;5.95;;;5.20;;
7989;SDS011;4040;42.848;23.034;2023-10-19T08:30:23;6.32;;;5.15;;
7989;SDS011;4040;42.848;23.034;2023-10-19T08:36:20;5.32;;;4.50;;
7989;SDS011;4040;42.848;23.034;2023-10-19T08:42:09;6.75;;;5.10;;
7989;SDS011;4040;42.848;23.034;2023-10-19T08:47:58;6.45;;;5.38;;
7989;SDS011;4040;42.848;23.034;2023-10-19T08:50:27;5.90;;;4.95;;
7989;SDS011;4040;42.848;23.034;2023-10-19T08:56:18;6.25;;;4.88;;
7989;SDS011;4040;42.848;23.034;2023-10-19T09:02:10;8.07;;;5.18;;
7989;SDS011;4040;42.848;23.034;2023-10-19T09:07:59;6.47;;;5.43;;
7989;SDS011;4040;42.848;23.034;2023-10-19T09:10:27;7.90;;;5.88;;
7989;SDS011;4040;42.848;23.034;2023-10-19T09:16:20;8.45;;;6.13;;
7989;SDS011;4040;42.848;23.034;2023-10-19T09:22:10;8.70;;;6.07;;
7989;SDS011;4040;42.848;23.034;2023-10-19T09:28:05;9.55;;;6.35;;
7989;SDS011;4040;42.848;23.034;2023-10-19T09:30:35;6.38;;;5.47;;
7989;SDS011;4040;42.848;23.034;2023-10-19T09:33:05;8.00;;;5.57;;
7989;SDS011;4040;42.848;23.034;2023-10-19T09:35:34;7.55;;;5.55;;
7989;SDS011;4040;42.848;23.034;2023-10-19T09:41:24;5.57;;;5.00;;
7989;SDS011;4040;42.848;23.034;2023-10-19T09:47:17;7.88;;;5.47;;
7989;SDS011;4040;42.848;23.034;2023-10-19T09:49:53;5.70;;;5.05;;
7989;SDS011;4040;42.848;23.034;2023-10-19T09:52:21;6.45;;;5.50;;
7989;SDS011;4040;42.848;23.034;2023-10-19T09:54:50;6.63;;;5.32;;
7989;SDS011;4040;42.848;23.034;2023-10-19T10:00:46;7.45;;;5.25;;
7989;SDS011;4040;42.848;23.034;2023-10-19T10:12:50;6.65;;;5.63;;
7989;SDS011;4040;42.848;23.034;2023-10-19T10:18:39;6.60;;;4.93;;
7989;SDS011;4040;42.848;23.034;2023-10-19T10:25:02;6.10;;;5.10;;
7989;SDS011;4040;42.848;23.034;2023-10-19T10:27:30;6.20;;;4.60;;
7989;SDS011;4040;42.848;23.034;2023-10-19T10:36:05;6.72;;;5.72;;
7989;SDS011;4040;42.848;23.034;2023-10-19T10:41:59;5.43;;;4.82;;
7989;SDS011;4040;42.848;23.034;2023-10-19T10:47:49;5.13;;;4.38;;
7989;SDS011;4040;42.848;23.034;2023-10-19T10:53:40;4.63;;;3.92;;
7989;SDS011;4040;42.848;23.034;2023-10-19T10:56:08;6.38;;;4.60;;
7989;SDS011;4040;42.848;23.034;2023-10-19T11:01:58;5.13;;;4.07;;
7989;SDS011;4040;42.848;23.034;2023-10-19T11:08:04;4.07;;;3.67;;
7989;SDS011;4040;42.848;23.034;2023-10-19T11:10:33;4.45;;;4.03;;
7989;SDS011;4040;42.848;23.034;2023-10-19T11:16:22;4.32;;;3.85;;
7989;SDS011;4040;42.848;23.034;2023-10-19T11:22:12;4.35;;;3.10;;
7989;SDS011;4040;42.848;23.034;2023-10-19T11:24:39;4.18;;;3.50;;
7989;SDS011;4040;42.848;23.034;2023-10-19T11:30:29;5.18;;;4.05;;
7989;SDS011;4040;42.848;23.034;2023-10-19T11:32:58;4.10;;;3.70;;
7989;SDS011;4040;42.848;23.034;2023-10-19T11:35:26;5.10;;;4.07;;
7989;SDS011;4040;42.848;23.034;2023-10-19T11:37:57;4.53;;;4.00;;
7989;SDS011;4040;42.848;23.034;2023-10-19T11:40:25;4.18;;;3.78;;
7989;SDS011;4040;42.848;23.034;2023-10-19T11:42:53;4.60;;;3.45;;
7989;SDS011;4040;42.848;23.034;2023-10-19T11:48:44;4.13;;;3.63;;
7989;SDS011;4040;42.848;23.034;2023-10-19T11:51:12;4.93;;;3.70;;
7989;SDS011;4040;42.848;23.034;2023-10-19T11:57:03;6.63;;;4.75;;
7989;SDS011;4040;42.848;23.034;2023-10-19T12:02:51;6.60;;;4.85;;
7989;SDS011;4040;42.848;23.034;2023-10-19T12:08:40;4.60;;;3.88;;
7989;SDS011;4040;42.848;23.034;2023-10-19T12:11:07;6.20;;;4.40;;
7989;SDS011;4040;42.848;23.034;2023-10-19T12:17:03;2.80;;;2.05;;
7989;SDS011;4040;42.848;23.034;2023-10-19T12:22:54;2.42;;;2.17;;
7989;SDS011;4040;42.848;23.034;2023-10-19T12:28:43;2.10;;;1.90;;
7989;SDS011;4040;42.848;23.034;2023-10-19T12:31:12;2.75;;;2.00;;
7989;SDS011;4040;42.848;23.034;2023-10-19T12:37:02;3.13;;;2.30;;
7989;SDS011;4040;42.848;23.034;2023-10-19T12:42:50;1.70;;;1.60;;
7989;SDS011;4040;42.848;23.034;2023-10-19T12:45:19;2.40;;;2.20;;
7989;SDS011;4040;42.848;23.034;2023-10-19T12:51:08;1.92;;;1.80;;
7989;SDS011;4040;42.848;23.034;2023-10-19T12:56:59;3.13;;;2.72;;
7989;SDS011;4040;42.848;23.034;2023-10-19T13:02:50;2.35;;;2.15;;
7989;SDS011;4040;42.848;23.034;2023-10-19T13:08:46;5.03;;;4.53;;
7989;SDS011;4040;42.848;23.034;2023-10-19T13:11:14;4.38;;;4.03;;
7989;SDS011;4040;42.848;23.034;2023-10-19T13:17:04;2.88;;;2.10;;
7989;SDS011;4040;42.848;23.034;2023-10-19T13:22:52;2.97;;;2.50;;
7989;SDS011;4040;42.848;23.034;2023-10-19T13:28:43;2.75;;;2.30;;
7989;SDS011;4040;42.848;23.034;2023-10-19T13:31:11;2.40;;;2.05;;
7989;SDS011;4040;42.848;23.034;2023-10-19T13:37:02;2.10;;;1.73;;
7989;SDS011;4040;42.848;23.034;2023-10-19T13:39:29;2.72;;;2.42;;
7989;SDS011;4040;42.848;23.034;2023-10-19T13:41:57;3.22;;;2.17;;
7989;SDS011;4040;42.848;23.034;2023-10-19T13:47:46;2.08;;;1.90;;
7989;SDS011;4040;42.848;23.034;2023-10-19T13:53:36;2.85;;;2.58;;
7989;SDS011;4040;42.848;23.034;2023-10-19T13:56:05;2.30;;;2.10;;
7989;SDS011;4040;42.848;23.034;2023-10-19T14:01:56;2.03;;;1.83;;
7989;SDS011;4040;42.848;23.034;2023-10-19T14:07:46;2.72;;;1.90;;
7989;SDS011;4040;42.848;23.034;2023-10-19T14:10:15;2.03;;;1.83;;
7989;SDS011;4040;42.848;23.034;2023-10-19T14:12:45;2.33;;;1.88;;
7989;SDS011;4040;42.848;23.034;2023-10-19T14:15:13;2.38;;;1.90;;
7989;SDS011;4040;42.848;23.034;2023-10-19T14:17:42;5.15;;;2.25;;
7989;SDS011;4040;42.848;23.034;2023-10-19T14:20:11;4.75;;;2.95;;
7989;SDS011;4040;42.848;23.034;2023-10-19T14:22:42;2.08;;;1.80;;
7989;SDS011;4040;42.848;23.034;2023-10-19T14:25:11;2.22;;;1.63;;
7989;SDS011;4040;42.848;23.034;2023-10-19T14:31:03;1.80;;;1.60;;
7989;SDS011;4040;42.848;23.034;2023-10-19T14:36:54;1.80;;;1.55;;
7989;SDS011;4040;42.848;23.034;2023-10-19T14:42:43;4.60;;;2.72;;
7989;SDS011;4040;42.848;23.034;2023-10-19T14:45:11;7.55;;;4.05;;
7989;SDS011;4040;42.848;23.034;2023-10-19T14:47:41;7.47;;;3.90;;
7989;SDS011;4040;42.848;23.034;2023-10-19T14:50:13;4.78;;;2.63;;
7989;SDS011;4040;42.848;23.034;2023-10-19T14:56:05;2.58;;;1.70;;
7989;SDS011;4040;42.848;23.034;2023-10-19T15:01:54;2.78;;;1.90;;
7989;SDS011;4040;42.848;23.034;2023-10-19T15:07:45;2.58;;;1.50;;
7989;SDS011;4040;42.848;23.034;2023-10-19T15:13:38;2.95;;;2.15;;
7989;SDS011;4040;42.848;23.034;2023-10-19T15:19:27;2.05;;;1.85;;
7989;SDS011;4040;42.848;23.034;2023-10-19T15:21:54;2.65;;;2.35;;
7989;SDS011;4040;42.848;23.034;2023-10-19T15:32:06;4.63;;;2.70;;
7989;SDS011;4040;42.848;23.034;2023-10-19T15:37:55;3.22;;;2.50;;
7989;SDS011;4040;42.848;23.034;2023-10-19T15:43:44;8.10;;;4.68;;
7989;SDS011;4040;42.848;23.034;2023-10-19T15:46:11;5.47;;;4.40;;
7989;SDS011;4040;42.848;23.034;2023-10-19T15:52:03;4.10;;;2.92;;
7989;SDS011;4040;42.848;23.034;2023-10-19T15:57:52;5.72;;;2.92;;
7989;SDS011;4040;42.848;23.034;2023-10-19T16:03:41;2.45;;;2.25;;
7989;SDS011;4040;42.848;23.034;2023-10-19T16:09:33;5.20;;;2.47;;
7989;SDS011;4040;42.848;23.034;2023-10-19T16:12:01;24.40;;;16.88;;
7989;SDS011;4040;42.848;23.034;2023-10-19T16:17:49;6.65;;;4.88;;
7989;SDS011;4040;42.848;23.034;2023-10-19T16:23:38;2.50;;;1.88;;
7989;SDS011;4040;42.848;23.034;2023-10-19T16:29:29;82.70;;;31.15;;
7989;SDS011;4040;42.848;23.034;2023-10-19T16:35:19;6.10;;;2.78;;
7989;SDS011;4040;42.848;23.034;2023-10-19T16:41:08;2.42;;;1.70;;
7989;SDS011;4040;42.848;23.034;2023-10-19T16:46:58;5.72;;;2.50;;
7989;SDS011;4040;42.848;23.034;2023-10-19T16:52:48;3.38;;;2.60;;
7989;SDS011;4040;42.848;23.034;2023-10-19T16:58:37;4.72;;;3.35;;
7989;SDS011;4040;42.848;23.034;2023-10-19T17:04:28;9.10;;;5.53;;
7989;SDS011;4040;42.848;23.034;2023-10-19T17:10:17;11.48;;;6.32;;
7989;SDS011;4040;42.848;23.034;2023-10-19T17:16:06;4.40;;;3.03;;
7989;SDS011;4040;42.848;23.034;2023-10-19T17:21:57;8.27;;;3.63;;
7989;SDS011;4040;42.848;23.034;2023-10-19T17:27:46;8.32;;;4.90;;
7989;SDS011;4040;42.848;23.034;2023-10-19T17:33:35;8.38;;;5.10;;
7989;SDS011;4040;42.848;23.034;2023-10-19T17:36:02;7.65;;;5.10;;
7989;SDS011;4040;42.848;23.034;2023-10-19T17:41:54;6.82;;;4.07;;
7989;SDS011;4040;42.848;23.034;2023-10-19T17:47:43;6.55;;;3.85;;
7989;SDS011;4040;42.848;23.034;2023-10-19T17:53:32;9.27;;;4.45;;
7989;SDS011;4040;42.848;23.034;2023-10-19T17:59:22;2.88;;;2.20;;
7989;SDS011;4040;42.848;23.034;2023-10-19T18:01:49;7.90;;;4.13;;
7989;SDS011;4040;42.848;23.034;2023-10-19T18:07:48;4.75;;;2.78;;
7989;SDS011;4040;42.848;23.034;2023-10-19T18:13:39;3.00;;;2.50;;
7989;SDS011;4040;42.848;23.034;2023-10-19T18:16:08;2.78;;;2.13;;
7989;SDS011;4040;42.848;23.034;2023-10-19T18:21:57;3.22;;;2.13;;
7989;SDS011;4040;42.848;23.034;2023-10-19T18:27:46;2.85;;;1.92;;
7989;SDS011;4040;42.848;23.034;2023-10-19T18:33:36;3.50;;;2.70;;
7989;SDS011;4040;42.848;23.034;2023-10-19T18:39:25;2.90;;;2.40;;
7989;SDS011;4040;42.848;23.034;2023-10-19T18:41:53;5.47;;;2.50;;
7989;SDS011;4040;42.848;23.034;2023-10-19T18:47:42;4.20;;;2.33;;
7989;SDS011;4040;42.848;23.034;2023-10-19T18:50:11;2.53;;;2.13;;
7989;SDS011;4040;42.848;23.034;2023-10-19T18:56:00;4.57;;;2.20;;
7989;SDS011;4040;42.848;23.034;2023-10-19T19:01:49;2.97;;;1.95;;
7989;SDS011;4040;42.848;23.034;2023-10-19T19:07:39;3.13;;;2.35;;
7989;SDS011;4040;42.848;23.034;2023-10-19T19:13:29;5.13;;;3.20;;
7989;SDS011;4040;42.848;23.034;2023-10-19T19:19:18;7.00;;;4.45;;
7989;SDS011;4040;42.848;23.034;2023-10-19T19:25:08;12.23;;;5.88;;
7989;SDS011;4040;42.848;23.034;2023-10-19T19:34:39;7.10;;;4.35;;
7989;SDS011;4040;42.848;23.034;2023-10-19T19:40:30;7.70;;;4.72;;
7989;SDS011;4040;42.848;23.034;2023-10-19T19:46:20;9.93;;;5.40;;
7989;SDS011;4040;42.848;23.034;2023-10-19T19:52:09;12.68;;;7.65;;
7989;SDS011;4040;42.848;23.034;2023-10-19T19:58:00;7.40;;;4.47;;
7989;SDS011;4040;42.848;23.034;2023-10-19T20:03:49;13.90;;;7.13;;
7989;SDS011;4040;42.848;23.034;2023-10-19T20:09:38;14.83;;;8.00;;
7989;SDS011;4040;42.848;23.034;2023-10-19T20:15:28;12.00;;;7.37;;
7989;SDS011;4040;42.848;23.034;2023-10-19T20:21:18;23.03;;;9.13;;
7989;SDS011;4040;42.848;23.034;2023-10-19T20:27:07;28.10;;;13.77;;
7989;SDS011;4040;42.848;23.034;2023-10-19T20:36:59;20.23;;;10.43;;
7989;SDS011;4040;42.848;23.034;2023-10-19T20:42:48;15.10;;;8.30;;
7989;SDS011;4040;42.848;23.034;2023-10-19T20:48:40;22.43;;;11.53;;
7989;SDS011;4040;42.848;23.034;2023-10-19T20:54:32;16.30;;;9.60;;
7989;SDS011;4040;42.848;23.034;2023-10-19T21:00:21;30.23;;;15.00;;
7989;SDS011;4040;42.848;23.034;2023-10-19T21:06:10;32.57;;;16.43;;
7989;SDS011;4040;42.848;23.034;2023-10-19T21:12:00;10.97;;;6.57;;
7989;SDS011;4040;42.848;23.034;2023-10-19T21:17:49;24.57;;;11.67;;
7989;SDS011;4040;42.848;23.034;2023-10-19T21:23:38;22.33;;;10.33;;
7989;SDS011;4040;42.848;23.034;2023-10-19T21:29:28;14.50;;;8.40;;
7989;SDS011;4040;42.848;23.034;2023-10-19T21:39:29;12.57;;;7.57;;
7989;SDS011;4040;42.848;23.034;2023-10-19T21:45:20;56.40;;;21.57;;
7989;SDS011;4040;42.848;23.034;2023-10-19T21:51:09;41.03;;;17.67;;
7989;SDS011;4040;42.848;23.034;2023-10-19T21:56:58;42.93;;;18.17;;
7989;SDS011;4040;42.848;23.034;2023-10-19T22:08:33;34.60;;;15.97;;
7989;SDS011;4040;42.848;23.034;2023-10-19T22:14:22;22.70;;;11.03;;
7989;SDS011;4040;42.848;23.034;2023-10-19T22:20:11;21.03;;;9.77;;
7989;SDS011;4040;42.848;23.034;2023-10-19T22:26:03;29.27;;;12.83;;
7989;SDS011;4040;42.848;23.034;2023-10-19T22:31:51;28.03;;;13.07;;
7989;SDS011;4040;42.848;23.034;2023-10-19T22:37:41;16.60;;;9.93;;
7989;SDS011;4040;42.848;23.034;2023-10-19T22:43:32;10.43;;;7.47;;
7989;SDS011;4040;42.848;23.034;2023-10-19T22:49:22;8.33;;;6.23;;
7989;SDS011;4040;42.848;23.034;2023-10-19T22:55:11;8.43;;;4.97;;
7989;SDS011;4040;42.848;23.034;2023-10-19T23:01:01;9.60;;;5.57;;
7989;SDS011;4040;42.848;23.034;2023-10-19T23:11:13;10.70;;;5.53;;
7989;SDS011;4040;42.848;23.034;2023-10-19T23:17:04;8.90;;;5.20;;
7989;SDS011;4040;42.848;23.034;2023-10-19T23:22:55;11.97;;;5.47;;
7989;SDS011;4040;42.848;23.034;2023-10-19T23:28:46;9.03;;;5.27;;
7989;SDS011;4040;42.848;23.034;2023-10-19T23:34:38;9.57;;;5.47;;
7989;SDS011;4040;42.848;23.034;2023-10-19T23:40:28;8.60;;;5.67;;
7989;SDS011;4040;42.848;23.034;2023-10-19T23:46:17;10.10;;;6.07;;
7989;SDS011;4040;42.848;23.034;2023-10-19T23:52:07;8.97;;;6.03;;
7989;SDS011;4040;42.848;23.034;2023-10-19T23:54:36;11.77;;;6.87;;
